Piopolis, Illinois
Current Conditions -  °F | °C
As of 12:35 PM on Saturday 25 Oct 2014 (Local Time) from KFWC Reporting Station
Clear Clear  
Wind Chill: 75°   Ceiling: Unl
Heat Index: 75°   Visibility: 10mi
Dew Point: 58°   Wind: 0mph
Humidity: 54%   Direction: NA
Pressure: 30.01"   Gusts: NA
Location:  38.1018°N, 88.4953°W
Report Text: KFWC 251735Z AUTO 00000KT 10SM CLR 24/14 A3001 RMK AO1 T02410144
Loading
Personal Weather Stations






























Interactive Weather Map
Tropical Storm Tracking
New forecast layout! Learn more

10-Day Weather Forecast

Advertisements
Track Severe Weather on mobile